sensor_id;sensor_type;location;lat;lon;timestamp;pressure;altitude;pressure_sealevel;temperature;humidity
71344;BME280;59146;43.850;25.948;2023-03-16T00:02:04;100143.94;;;8.19;73.54
71344;BME280;59146;43.850;25.948;2023-03-16T00:04:30;100166.84;;;8.43;73.57
71344;BME280;59146;43.850;25.948;2023-03-16T00:06:57;100102.59;;;8.14;72.89
71344;BME280;59146;43.850;25.948;2023-03-16T00:09:23;100129.75;;;8.24;72.94
71344;BME280;59146;43.850;25.948;2023-03-16T00:12:04;100150.84;;;8.04;74.61
71344;BME280;59146;43.850;25.948;2023-03-16T00:14:30;100092.13;;;7.69;75.19
71344;BME280;59146;43.850;25.948;2023-03-16T00:16:56;100145.91;;;7.99;75.03
71344;BME280;59146;43.850;25.948;2023-03-16T00:19:21;100113.00;;;7.67;75.51
71344;BME280;59146;43.850;25.948;2023-03-16T00:21:50;100149.25;;;7.70;76.51
71344;BME280;59146;43.850;25.948;2023-03-16T00:24:16;100159.41;;;7.75;77.03
71344;BME280;59146;43.850;25.948;2023-03-16T00:26:43;100071.84;;;7.44;76.96
71344;BME280;59146;43.850;25.948;2023-03-16T00:29:09;100152.59;;;7.88;76.84
71344;BME280;59146;43.850;25.948;2023-03-16T00:31:36;100158.41;;;7.93;76.89
71344;BME280;59146;43.850;25.948;2023-03-16T00:34:02;100097.41;;;7.36;77.22
71344;BME280;59146;43.850;25.948;2023-03-16T00:36:27;100120.81;;;7.52;77.36
71344;BME280;59146;43.850;25.948;2023-03-16T00:38:52;100112.00;;;7.54;77.69
71344;BME280;59146;43.850;25.948;2023-03-16T00:41:18;100162.84;;;7.91;77.51
71344;BME280;59146;43.850;25.948;2023-03-16T00:43:44;100181.63;;;7.96;77.53
71344;BME280;59146;43.850;25.948;2023-03-16T00:46:14;100131.47;;;7.78;77.62
71344;BME280;59146;43.850;25.948;2023-03-16T00:48:42;100075.13;;;7.48;77.98
71344;BME280;59146;43.850;25.948;2023-03-16T00:51:13;100170.88;;;8.18;77.75
71344;BME280;59146;43.850;25.948;2023-03-16T00:53:42;100174.06;;;8.38;76.56
71344;BME280;59146;43.850;25.948;2023-03-16T00:56:08;100181.22;;;8.35;75.85
71344;BME280;59146;43.850;25.948;2023-03-16T00:58:35;100202.59;;;8.24;76.81
71344;BME280;59146;43.850;25.948;2023-03-16T01:01:06;100120.72;;;7.84;77.05
71344;BME280;59146;43.850;25.948;2023-03-16T01:03:32;100118.72;;;7.89;77.27
71344;BME280;59146;43.850;25.948;2023-03-16T01:06:03;100182.47;;;8.28;76.09
71344;BME280;59146;43.850;25.948;2023-03-16T01:08:30;100205.78;;;8.14;77.14
71344;BME280;59146;43.850;25.948;2023-03-16T01:11:04;100189.53;;;8.10;77.36
71344;BME280;59146;43.850;25.948;2023-03-16T01:13:29;100150.09;;;8.02;76.88
71344;BME280;59146;43.850;25.948;2023-03-16T01:15:57;100170.63;;;8.22;76.47
71344;BME280;59146;43.850;25.948;2023-03-16T01:18:22;100180.63;;;8.14;76.75
71344;BME280;59146;43.850;25.948;2023-03-16T01:20:48;100147.59;;;7.85;77.48
71344;BME280;59146;43.850;25.948;2023-03-16T01:23:19;100180.28;;;8.04;77.65
71344;BME280;59146;43.850;25.948;2023-03-16T01:25:45;100099.03;;;7.70;76.58
71344;BME280;59146;43.850;25.948;2023-03-16T01:28:21;100143.81;;;8.06;75.73
71344;BME280;59146;43.850;25.948;2023-03-16T01:30:49;100133.81;;;7.98;76.19
71344;BME280;59146;43.850;25.948;2023-03-16T01:33:21;100215.72;;;8.23;76.76
71344;BME280;59146;43.850;25.948;2023-03-16T01:36:01;100202.47;;;8.27;76.99
71344;BME280;59146;43.850;25.948;2023-03-16T01:38:26;100149.50;;;8.13;75.97
71344;BME280;59146;43.850;25.948;2023-03-16T01:40:53;100084.59;;;7.49;76.09
71344;BME280;59146;43.850;25.948;2023-03-16T01:43:21;100159.97;;;7.80;76.88
71344;BME280;59146;43.850;25.948;2023-03-16T01:48:30;99996.59;;;6.63;78.51
71344;BME280;59146;43.850;25.948;2023-03-16T01:51:24;99964.53;;;6.31;78.87
71344;BME280;59146;43.850;25.948;2023-03-16T01:53:55;100217.66;;;7.71;80.16
71344;BME280;59146;43.850;25.948;2023-03-16T01:56:26;100217.31;;;7.61;81.08
71344;BME280;59146;43.850;25.948;2023-03-16T01:58:56;100218.66;;;7.53;81.54
71344;BME280;59146;43.850;25.948;2023-03-16T02:01:25;100211.03;;;7.50;81.48
71344;BME280;59146;43.850;25.948;2023-03-16T02:03:55;100224.84;;;7.83;81.63
71344;BME280;59146;43.850;25.948;2023-03-16T02:06:21;100219.88;;;7.78;81.76
71344;BME280;59146;43.850;25.948;2023-03-16T02:08:50;100150.03;;;7.40;81.82
71344;BME280;59146;43.850;25.948;2023-03-16T02:11:19;100226.34;;;7.87;81.80
71344;BME280;59146;43.850;25.948;2023-03-16T02:13:47;100213.25;;;7.73;81.92
71344;BME280;59146;43.850;25.948;2023-03-16T02:16:15;100202.25;;;7.68;81.79
71344;BME280;59146;43.850;25.948;2023-03-16T02:18:47;100233.44;;;7.83;82.21
71344;BME280;59146;43.850;25.948;2023-03-16T02:23:58;100161.84;;;7.30;82.58
71344;BME280;59146;43.850;25.948;2023-03-16T02:29:16;100246.59;;;7.97;83.50
71344;BME280;59146;43.850;25.948;2023-03-16T02:31:43;100229.78;;;8.03;82.19
71344;BME280;59146;43.850;25.948;2023-03-16T02:34:11;100239.44;;;8.01;83.61
71344;BME280;59146;43.850;25.948;2023-03-16T02:36:38;100180.78;;;7.80;83.43
71344;BME280;59146;43.850;25.948;2023-03-16T02:39:05;100239.13;;;8.23;82.51
71344;BME280;59146;43.850;25.948;2023-03-16T02:41:31;100166.00;;;7.65;82.38
71344;BME280;59146;43.850;25.948;2023-03-16T02:44:08;100130.50;;;7.33;83.57
71344;BME280;59146;43.850;25.948;2023-03-16T02:46:39;100197.00;;;7.85;82.77
71344;BME280;59146;43.850;25.948;2023-03-16T02:49:24;100244.66;;;8.17;82.35
71344;BME280;59146;43.850;25.948;2023-03-16T02:51:50;100190.19;;;7.98;81.59
71344;BME280;59146;43.850;25.948;2023-03-16T02:54:16;100188.69;;;7.78;82.21
71344;BME280;59146;43.850;25.948;2023-03-16T02:56:41;100204.53;;;7.89;82.88
71344;BME280;59146;43.850;25.948;2023-03-16T02:59:07;100190.28;;;7.81;82.87
71344;BME280;59146;43.850;25.948;2023-03-16T03:01:33;100199.75;;;7.97;82.41
71344;BME280;59146;43.850;25.948;2023-03-16T03:04:00;100207.38;;;7.85;81.86
71344;BME280;59146;43.850;25.948;2023-03-16T03:06:25;100196.22;;;7.83;82.51
71344;BME280;59146;43.850;25.948;2023-03-16T03:08:51;100221.38;;;7.98;83.03
71344;BME280;59146;43.850;25.948;2023-03-16T03:11:16;100258.34;;;8.36;83.04
71344;BME280;59146;43.850;25.948;2023-03-16T03:13:44;100216.31;;;8.28;81.94
71344;BME280;59146;43.850;25.948;2023-03-16T03:16:10;100261.22;;;8.62;81.16
71344;BME280;59146;43.850;25.948;2023-03-16T03:18:35;100214.59;;;8.11;81.93
71344;BME280;59146;43.850;25.948;2023-03-16T03:21:00;100252.34;;;8.35;81.99
71344;BME280;59146;43.850;25.948;2023-03-16T03:23:26;100242.75;;;8.36;81.74
71344;BME280;59146;43.850;25.948;2023-03-16T03:25:51;100224.97;;;8.28;81.58
71344;BME280;59146;43.850;25.948;2023-03-16T03:28:17;100231.50;;;8.35;80.96
71344;BME280;59146;43.850;25.948;2023-03-16T03:30:42;100283.22;;;8.41;81.91
71344;BME280;59146;43.850;25.948;2023-03-16T03:33:07;100289.59;;;8.51;81.93
71344;BME280;59146;43.850;25.948;2023-03-16T03:35:33;100309.47;;;8.68;82.26
71344;BME280;59146;43.850;25.948;2023-03-16T03:37:58;100257.44;;;8.37;79.41
71344;BME280;59146;43.850;25.948;2023-03-16T03:40:24;100231.78;;;7.98;79.81
71344;BME280;59146;43.850;25.948;2023-03-16T03:42:49;100265.03;;;7.93;80.42
71344;BME280;59146;43.850;25.948;2023-03-16T03:45:15;100228.91;;;7.56;80.91
71344;BME280;59146;43.850;25.948;2023-03-16T03:47:42;100340.22;;;8.13;80.67
71344;BME280;59146;43.850;25.948;2023-03-16T03:50:10;100356.06;;;7.93;80.88
71344;BME280;59146;43.850;25.948;2023-03-16T03:52:36;100285.63;;;7.48;81.08
71344;BME280;59146;43.850;25.948;2023-03-16T03:55:01;100349.44;;;7.70;81.74
71344;BME280;59146;43.850;25.948;2023-03-16T03:57:27;100285.91;;;7.42;81.43
71344;BME280;59146;43.850;25.948;2023-03-16T03:59:52;100277.75;;;7.32;81.08
71344;BME280;59146;43.850;25.948;2023-03-16T04:02:17;100361.63;;;7.85;80.84
71344;BME280;59146;43.850;25.948;2023-03-16T04:04:43;100298.84;;;7.43;80.87
71344;BME280;59146;43.850;25.948;2023-03-16T04:07:08;100306.78;;;7.40;80.85
71344;BME280;59146;43.850;25.948;2023-03-16T04:09:34;100364.28;;;7.51;80.87
71344;BME280;59146;43.850;25.948;2023-03-16T04:12:01;100362.59;;;7.50;80.79
71344;BME280;59146;43.850;25.948;2023-03-16T04:14:27;100339.13;;;7.35;81.01
71344;BME280;59146;43.850;25.948;2023-03-16T04:16:53;100325.22;;;7.36;80.66
71344;BME280;59146;43.850;25.948;2023-03-16T04:19:22;100319.19;;;7.18;80.56
71344;BME280;59146;43.850;25.948;2023-03-16T04:21:49;100324.97;;;7.23;80.79
71344;BME280;59146;43.850;25.948;2023-03-16T04:24:15;100376.44;;;7.51;81.20
71344;BME280;59146;43.850;25.948;2023-03-16T04:26:41;100289.38;;;7.08;80.00
71344;BME280;59146;43.850;25.948;2023-03-16T04:29:10;100333.41;;;7.28;79.35
71344;BME280;59146;43.850;25.948;2023-03-16T04:31:36;100318.72;;;7.10;79.58
71344;BME280;59146;43.850;25.948;2023-03-16T04:34:01;100369.16;;;7.40;79.05
71344;BME280;59146;43.850;25.948;2023-03-16T04:36:26;100380.09;;;7.47;78.19
71344;BME280;59146;43.850;25.948;2023-03-16T04:38:52;100409.34;;;7.33;78.03
71344;BME280;59146;43.850;25.948;2023-03-16T04:41:18;100322.53;;;6.67;78.21
71344;BME280;59146;43.850;25.948;2023-03-16T04:43:44;100417.19;;;7.14;78.70
71344;BME280;59146;43.850;25.948;2023-03-16T04:46:09;100373.91;;;6.96;77.25
71344;BME280;59146;43.850;25.948;2023-03-16T04:48:35;100368.97;;;6.73;76.87
71344;BME280;59146;43.850;25.948;2023-03-16T04:51:02;100423.19;;;6.79;77.63
71344;BME280;59146;43.850;25.948;2023-03-16T04:53:30;100443.09;;;6.60;78.23
71344;BME280;59146;43.850;25.948;2023-03-16T04:55:59;100431.16;;;6.37;79.38
71344;BME280;59146;43.850;25.948;2023-03-16T04:58:26;100443.19;;;6.59;79.18
71344;BME280;59146;43.850;25.948;2023-03-16T05:00:52;100409.72;;;6.34;78.95
71344;BME280;59146;43.850;25.948;2023-03-16T05:03:18;100386.28;;;6.17;78.48
71344;BME280;59146;43.850;25.948;2023-03-16T05:05:45;100502.59;;;6.65;79.09
71344;BME280;59146;43.850;25.948;2023-03-16T05:08:11;100505.19;;;6.65;79.51
71344;BME280;59146;43.850;25.948;2023-03-16T05:10:36;100505.38;;;6.80;78.78
71344;BME280;59146;43.850;25.948;2023-03-16T05:13:02;100489.63;;;6.65;78.61
71344;BME280;59146;43.850;25.948;2023-03-16T05:15:28;100400.50;;;5.88;78.96
71344;BME280;59146;43.850;25.948;2023-03-16T05:17:54;100455.88;;;6.07;80.29
71344;BME280;59146;43.850;25.948;2023-03-16T05:20:20;100504.00;;;6.53;79.76
71344;BME280;59146;43.850;25.948;2023-03-16T05:22:46;100428.31;;;6.05;79.24
71344;BME280;59146;43.850;25.948;2023-03-16T05:25:13;100443.44;;;6.14;79.05
71344;BME280;59146;43.850;25.948;2023-03-16T05:27:49;100462.78;;;6.07;79.33
71344;BME280;59146;43.850;25.948;2023-03-16T05:30:16;100459.13;;;5.91;79.70
71344;BME280;59146;43.850;25.948;2023-03-16T05:32:42;100421.00;;;5.73;79.09
71344;BME280;59146;43.850;25.948;2023-03-16T05:35:07;100548.50;;;6.44;78.55
71344;BME280;59146;43.850;25.948;2023-03-16T05:37:34;100483.53;;;6.07;78.52
71344;BME280;59146;43.850;25.948;2023-03-16T05:40:06;100460.13;;;5.88;78.78
71344;BME280;59146;43.850;25.948;2023-03-16T05:42:55;100556.66;;;6.15;79.59
71344;BME280;59146;43.850;25.948;2023-03-16T05:45:21;100460.66;;;5.75;79.30
71344;BME280;59146;43.850;25.948;2023-03-16T05:47:47;100535.72;;;6.19;78.86
71344;BME280;59146;43.850;25.948;2023-03-16T05:50:14;100510.09;;;5.92;78.58
71344;BME280;59146;43.850;25.948;2023-03-16T05:52:42;100569.75;;;6.12;79.36
71344;BME280;59146;43.850;25.948;2023-03-16T05:55:09;100490.72;;;5.58;80.08
71344;BME280;59146;43.850;25.948;2023-03-16T05:57:36;100449.16;;;5.40;80.16
71344;BME280;59146;43.850;25.948;2023-03-16T06:00:03;100555.63;;;6.19;79.50
71344;BME280;59146;43.850;25.948;2023-03-16T06:02:39;100566.59;;;6.25;79.05
71344;BME280;59146;43.850;25.948;2023-03-16T06:05:04;100562.19;;;6.27;78.49
71344;BME280;59146;43.850;25.948;2023-03-16T06:07:31;100555.91;;;5.91;78.85
71344;BME280;59146;43.850;25.948;2023-03-16T06:09:57;100554.16;;;5.92;79.51
71344;BME280;59146;43.850;25.948;2023-03-16T06:12:22;100521.06;;;5.77;78.89
71344;BME280;59146;43.850;25.948;2023-03-16T06:14:47;100526.25;;;5.77;79.42
71344;BME280;59146;43.850;25.948;2023-03-16T06:17:13;100564.38;;;5.96;79.41
71344;BME280;59146;43.850;25.948;2023-03-16T06:19:38;100542.28;;;5.64;79.08
71344;BME280;59146;43.850;25.948;2023-03-16T06:22:04;100520.09;;;5.57;80.11
71344;BME280;59146;43.850;25.948;2023-03-16T06:24:29;100567.13;;;5.92;79.08
71344;BME280;59146;43.850;25.948;2023-03-16T06:26:55;100581.16;;;6.08;78.97
71344;BME280;59146;43.850;25.948;2023-03-16T06:29:20;100422.03;;;5.05;78.64
71344;BME280;59146;43.850;25.948;2023-03-16T06:31:46;100528.19;;;5.50;78.39
71344;BME280;59146;43.850;25.948;2023-03-16T06:34:11;100539.66;;;5.44;78.83
71344;BME280;59146;43.850;25.948;2023-03-16T06:36:36;100514.91;;;5.57;78.51
71344;BME280;59146;43.850;25.948;2023-03-16T06:39:04;100579.06;;;5.96;78.21
71344;BME280;59146;43.850;25.948;2023-03-16T06:41:30;100577.25;;;5.98;77.82
71344;BME280;59146;43.850;25.948;2023-03-16T06:43:55;100612.66;;;5.99;78.60
71344;BME280;59146;43.850;25.948;2023-03-16T06:46:21;100622.91;;;6.02;78.62
71344;BME280;59146;43.850;25.948;2023-03-16T06:48:47;100550.50;;;5.76;77.71
71344;BME280;59146;43.850;25.948;2023-03-16T06:51:12;100511.94;;;5.46;77.07
71344;BME280;59146;43.850;25.948;2023-03-16T06:53:38;100598.00;;;5.98;77.14
71344;BME280;59146;43.850;25.948;2023-03-16T06:56:03;100644.66;;;5.98;76.80
71344;BME280;59146;43.850;25.948;2023-03-16T06:58:29;100648.63;;;5.85;77.78
71344;BME280;59146;43.850;25.948;2023-03-16T07:00:55;100622.81;;;5.82;78.06
71344;BME280;59146;43.850;25.948;2023-03-16T07:03:20;100581.84;;;5.70;77.29
71344;BME280;59146;43.850;25.948;2023-03-16T07:05:46;100605.50;;;5.84;77.07
71344;BME280;59146;43.850;25.948;2023-03-16T07:08:12;100666.03;;;6.04;76.94
71344;BME280;59146;43.850;25.948;2023-03-16T07:10:39;100676.88;;;5.92;78.07
71344;BME280;59146;43.850;25.948;2023-03-16T07:13:05;100706.41;;;6.10;77.90
71344;BME280;59146;43.850;25.948;2023-03-16T07:15:30;100674.59;;;6.06;77.46
71344;BME280;59146;43.850;25.948;2023-03-16T07:17:55;100661.16;;;5.97;77.71
71344;BME280;59146;43.850;25.948;2023-03-16T07:20:21;100661.50;;;5.64;77.85
71344;BME280;59146;43.850;25.948;2023-03-16T07:22:46;100570.53;;;5.04;78.82
71344;BME280;59146;43.850;25.948;2023-03-16T07:25:12;100677.03;;;5.64;78.32
71344;BME280;59146;43.850;25.948;2023-03-16T07:27:38;100692.53;;;5.89;78.03
71344;BME280;59146;43.850;25.948;2023-03-16T07:30:06;100713.94;;;6.16;77.13
71344;BME280;59146;43.850;25.948;2023-03-16T07:32:32;100690.00;;;5.88;76.76
71344;BME280;59146;43.850;25.948;2023-03-16T07:34:57;100696.66;;;5.95;77.40
71344;BME280;59146;43.850;25.948;2023-03-16T07:37:24;100660.56;;;5.65;77.12
71344;BME280;59146;43.850;25.948;2023-03-16T07:39:49;100649.50;;;5.39;78.13
71344;BME280;59146;43.850;25.948;2023-03-16T07:42:16;100649.97;;;5.27;78.53
71344;BME280;59146;43.850;25.948;2023-03-16T07:44:41;100707.06;;;5.70;79.24
71344;BME280;59146;43.850;25.948;2023-03-16T07:47:07;100687.88;;;5.52;79.74
71344;BME280;59146;43.850;25.948;2023-03-16T07:49:33;100726.84;;;5.73;79.77
71344;BME280;59146;43.850;25.948;2023-03-16T07:51:59;100692.50;;;5.44;80.24
71344;BME280;59146;43.850;25.948;2023-03-16T07:54:24;100637.78;;;5.06;80.54
71344;BME280;59146;43.850;25.948;2023-03-16T07:56:50;100699.41;;;5.44;81.25
71344;BME280;59146;43.850;25.948;2023-03-16T07:59:15;100674.50;;;5.17;81.79
71344;BME280;59146;43.850;25.948;2023-03-16T08:01:41;100659.91;;;5.14;81.43
71344;BME280;59146;43.850;25.948;2023-03-16T08:04:06;100661.63;;;5.15;81.56
71344;BME280;59146;43.850;25.948;2023-03-16T08:06:31;100668.44;;;4.93;81.40
71344;BME280;59146;43.850;25.948;2023-03-16T08:08:57;100686.22;;;5.27;82.02
71344;BME280;59146;43.850;25.948;2023-03-16T08:11:23;100747.91;;;5.63;81.73
71344;BME280;59146;43.850;25.948;2023-03-16T08:13:49;100700.69;;;5.32;82.14
71344;BME280;59146;43.850;25.948;2023-03-16T08:16:22;100734.13;;;5.63;82.03
71344;BME280;59146;43.850;25.948;2023-03-16T08:18:48;100727.38;;;5.59;81.41
71344;BME280;59146;43.850;25.948;2023-03-16T08:21:15;100686.72;;;5.36;81.90
71344;BME280;59146;43.850;25.948;2023-03-16T08:23:41;100699.66;;;5.36;81.59
71344;BME280;59146;43.850;25.948;2023-03-16T08:26:14;100708.91;;;5.43;80.86
71344;BME280;59146;43.850;25.948;2023-03-16T08:28:41;100731.00;;;5.53;81.72
71344;BME280;59146;43.850;25.948;2023-03-16T08:31:07;100750.56;;;5.62;80.96
71344;BME280;59146;43.850;25.948;2023-03-16T08:33:33;100693.56;;;5.14;81.20
71344;BME280;59146;43.850;25.948;2023-03-16T08:36:00;100747.56;;;5.49;81.45
71344;BME280;59146;43.850;25.948;2023-03-16T08:38:26;100775.41;;;5.68;80.96
71344;BME280;59146;43.850;25.948;2023-03-16T08:40:51;100764.31;;;5.64;80.94
71344;BME280;59146;43.850;25.948;2023-03-16T08:43:17;100778.34;;;5.58;81.37
71344;BME280;59146;43.850;25.948;2023-03-16T08:45:47;100768.63;;;5.63;81.00
71344;BME280;59146;43.850;25.948;2023-03-16T08:48:13;100751.63;;;5.56;80.20
71344;BME280;59146;43.850;25.948;2023-03-16T08:50:43;100716.13;;;5.35;80.55
71344;BME280;59146;43.850;25.948;2023-03-16T08:53:10;100717.00;;;5.34;81.18
71344;BME280;59146;43.850;25.948;2023-03-16T08:55:36;100723.19;;;5.55;79.64
71344;BME280;59146;43.850;25.948;2023-03-16T08:58:02;100632.75;;;5.01;79.29
71344;BME280;59146;43.850;25.948;2023-03-16T09:00:29;100797.66;;;5.98;78.73
71344;BME280;59146;43.850;25.948;2023-03-16T09:02:54;100796.94;;;5.94;79.19
71344;BME280;59146;43.850;25.948;2023-03-16T09:05:21;100772.31;;;5.81;78.25
71344;BME280;59146;43.850;25.948;2023-03-16T09:07:48;100789.63;;;6.04;77.78
71344;BME280;59146;43.850;25.948;2023-03-16T09:10:13;100681.97;;;5.24;76.39
71344;BME280;59146;43.850;25.948;2023-03-16T09:12:43;100782.06;;;5.75;77.27
71344;BME280;59146;43.850;25.948;2023-03-16T09:15:10;100834.59;;;5.80;77.60
71344;BME280;59146;43.850;25.948;2023-03-16T09:17:37;100773.00;;;5.63;78.34
71344;BME280;59146;43.850;25.948;2023-03-16T09:20:04;100748.50;;;5.47;78.64
71344;BME280;59146;43.850;25.948;2023-03-16T09:22:33;100743.22;;;5.50;78.08
71344;BME280;59146;43.850;25.948;2023-03-16T09:24:59;100743.16;;;5.51;77.16
71344;BME280;59146;43.850;25.948;2023-03-16T09:27:25;100813.44;;;5.92;77.71
71344;BME280;59146;43.850;25.948;2023-03-16T09:29:50;100807.09;;;5.76;77.99
71344;BME280;59146;43.850;25.948;2023-03-16T09:32:17;100800.53;;;5.65;79.12
71344;BME280;59146;43.850;25.948;2023-03-16T09:34:42;100771.72;;;5.50;79.29
71344;BME280;59146;43.850;25.948;2023-03-16T09:37:09;100795.34;;;5.65;79.12
71344;BME280;59146;43.850;25.948;2023-03-16T09:39:34;100780.19;;;5.55;78.66
71344;BME280;59146;43.850;25.948;2023-03-16T09:45:05;100852.00;;;6.01;79.41
71344;BME280;59146;43.850;25.948;2023-03-16T09:47:33;100810.16;;;5.87;79.42
71344;BME280;59146;43.850;25.948;2023-03-16T09:50:07;100838.84;;;6.05;79.72
71344;BME280;59146;43.850;25.948;2023-03-16T09:52:46;100848.84;;;5.93;80.00
71344;BME280;59146;43.850;25.948;2023-03-16T09:57:54;100738.09;;;5.48;80.35
71344;BME280;59146;43.850;25.948;2023-03-16T10:05:15;100722.63;;;5.22;80.86
71344;BME280;59146;43.850;25.948;2023-03-16T10:07:49;100862.38;;;6.24;80.12
71344;BME280;59146;43.850;25.948;2023-03-16T10:13:04;100794.16;;;5.74;80.26
71344;BME280;59146;43.850;25.948;2023-03-16T10:15:38;100864.50;;;6.36;79.73
71344;BME280;59146;43.850;25.948;2023-03-16T10:18:26;100770.09;;;5.71;80.02
71344;BME280;59146;43.850;25.948;2023-03-16T10:20:53;100793.00;;;5.84;81.38
71344;BME280;59146;43.850;25.948;2023-03-16T10:23:21;100851.53;;;6.36;80.52
71344;BME280;59146;43.850;25.948;2023-03-16T10:25:50;100880.50;;;6.70;80.74
71344;BME280;59146;43.850;25.948;2023-03-16T10:28:24;100839.22;;;6.41;80.16
71344;BME280;59146;43.850;25.948;2023-03-16T10:30:55;100891.47;;;6.55;81.21
71344;BME280;59146;43.850;25.948;2023-03-16T10:33:25;100869.44;;;6.65;79.13
71344;BME280;59146;43.850;25.948;2023-03-16T10:36:37;100882.47;;;6.85;80.21
71344;BME280;59146;43.850;25.948;2023-03-16T10:39:01;100848.91;;;6.59;78.93
71344;BME280;59146;43.850;25.948;2023-03-16T10:41:38;100847.44;;;6.52;79.80
71344;BME280;59146;43.850;25.948;2023-03-16T10:44:15;100815.66;;;6.47;78.76
71344;BME280;59146;43.850;25.948;2023-03-16T10:46:43;100806.00;;;6.51;77.97
71344;BME280;59146;43.850;25.948;2023-03-16T10:49:19;100885.06;;;6.85;78.23
71344;BME280;59146;43.850;25.948;2023-03-16T10:51:45;100794.81;;;6.27;79.17
71344;BME280;59146;43.850;25.948;2023-03-16T10:54:15;100816.19;;;6.33;79.22
71344;BME280;59146;43.850;25.948;2023-03-16T10:56:43;100827.59;;;6.51;79.31
71344;BME280;59146;43.850;25.948;2023-03-16T10:59:31;100799.50;;;6.39;79.25
71344;BME280;59146;43.850;25.948;2023-03-16T11:01:59;100855.91;;;6.57;78.70
71344;BME280;59146;43.850;25.948;2023-03-16T11:04:29;100875.22;;;6.50;79.25
71344;BME280;59146;43.850;25.948;2023-03-16T11:06:56;100879.28;;;6.57;79.43
71344;BME280;59146;43.850;25.948;2023-03-16T11:09:32;100824.91;;;6.31;79.50
71344;BME280;59146;43.850;25.948;2023-03-16T11:12:00;100812.72;;;6.33;79.92
71344;BME280;59146;43.850;25.948;2023-03-16T11:14:36;100870.22;;;6.67;79.58
71344;BME280;59146;43.850;25.948;2023-03-16T11:17:18;100845.81;;;6.50;80.42
71344;BME280;59146;43.850;25.948;2023-03-16T11:19:55;100873.84;;;6.63;80.65
71344;BME280;59146;43.850;25.948;2023-03-16T11:22:24;100807.00;;;6.25;80.38
71344;BME280;59146;43.850;25.948;2023-03-16T11:30:28;100886.19;;;6.80;80.96
71344;BME280;59146;43.850;25.948;2023-03-16T11:32:55;100860.44;;;6.52;79.98
71344;BME280;59146;43.850;25.948;2023-03-16T11:41:12;100886.34;;;6.75;78.32
71344;BME280;59146;43.850;25.948;2023-03-16T11:43:51;100858.28;;;6.63;77.79
71344;BME280;59146;43.850;25.948;2023-03-16T11:54:46;100888.97;;;6.97;77.77
71344;BME280;59146;43.850;25.948;2023-03-16T12:05:33;100839.59;;;6.54;77.49
71344;BME280;59146;43.850;25.948;2023-03-16T12:11:24;100864.81;;;6.95;78.07
71344;BME280;59146;43.850;25.948;2023-03-16T12:18:59;100899.22;;;7.21;76.49
71344;BME280;59146;43.850;25.948;2023-03-16T12:21:39;100925.63;;;7.53;75.98
71344;BME280;59146;43.850;25.948;2023-03-16T12:24:13;100867.69;;;7.09;75.89
71344;BME280;59146;43.850;25.948;2023-03-16T12:26:42;100911.66;;;7.13;76.80
71344;BME280;59146;43.850;25.948;2023-03-16T12:29:18;100877.81;;;6.93;77.92
71344;BME280;59146;43.850;25.948;2023-03-16T12:31:59;100925.91;;;7.47;78.48
71344;BME280;59146;43.850;25.948;2023-03-16T12:34:51;100933.34;;;7.34;76.95
71344;BME280;59146;43.850;25.948;2023-03-16T12:40:21;100940.81;;;7.42;76.91
71344;BME280;59146;43.850;25.948;2023-03-16T12:50:53;100898.69;;;7.13;77.96
71344;BME280;59146;43.850;25.948;2023-03-16T12:53:28;100869.84;;;6.98;76.89
71344;BME280;59146;43.850;25.948;2023-03-16T12:56:05;100922.53;;;7.23;77.37
71344;BME280;59146;43.850;25.948;2023-03-16T12:58:33;100956.25;;;7.25;79.77
71344;BME280;59146;43.850;25.948;2023-03-16T13:00:58;100768.94;;;6.25;78.62
71344;BME280;59146;43.850;25.948;2023-03-16T13:03:25;100892.44;;;6.96;78.90
71344;BME280;59146;43.850;25.948;2023-03-16T13:05:57;100880.38;;;6.73;79.10
71344;BME280;59146;43.850;25.948;2023-03-16T13:08:24;100937.28;;;7.01;79.70
71344;BME280;59146;43.850;25.948;2023-03-16T13:13:25;100888.19;;;6.50;80.32
71344;BME280;59146;43.850;25.948;2023-03-16T13:16:02;100911.03;;;6.64;79.56
71344;BME280;59146;43.850;25.948;2023-03-16T13:18:35;100964.16;;;6.77;80.87
71344;BME280;59146;43.850;25.948;2023-03-16T13:21:14;100902.41;;;6.40;81.49
71344;BME280;59146;43.850;25.948;2023-03-16T13:23:59;100985.56;;;6.83;81.80
71344;BME280;59146;43.850;25.948;2023-03-16T13:26:45;100987.34;;;6.83;82.07
71344;BME280;59146;43.850;25.948;2023-03-16T13:29:24;100992.06;;;6.72;81.78
71344;BME280;59146;43.850;25.948;2023-03-16T13:31:52;100981.84;;;6.67;82.65
71344;BME280;59146;43.850;25.948;2023-03-16T13:34:32;100963.59;;;6.46;82.55
71344;BME280;59146;43.850;25.948;2023-03-16T13:37:00;100991.22;;;6.71;83.24
71344;BME280;59146;43.850;25.948;2023-03-16T13:39:28;100978.47;;;6.65;83.83
71344;BME280;59146;43.850;25.948;2023-03-16T13:42:14;100926.84;;;6.34;81.99
71344;BME280;59146;43.850;25.948;2023-03-16T13:44:41;101007.53;;;6.75;82.30
71344;BME280;59146;43.850;25.948;2023-03-16T13:47:07;100973.50;;;6.59;83.31
71344;BME280;59146;43.850;25.948;2023-03-16T13:49:44;100994.84;;;6.67;83.31
71344;BME280;59146;43.850;25.948;2023-03-16T13:52:28;101001.16;;;6.83;82.50
71344;BME280;59146;43.850;25.948;2023-03-16T13:54:56;100999.78;;;6.73;82.32
71344;BME280;59146;43.850;25.948;2023-03-16T13:57:26;100931.84;;;6.39;81.54
71344;BME280;59146;43.850;25.948;2023-03-16T14:00:01;100994.50;;;6.76;80.91
71344;BME280;59146;43.850;25.948;2023-03-16T14:02:29;101002.16;;;7.02;80.23
71344;BME280;59146;43.850;25.948;2023-03-16T14:04:55;100982.38;;;6.98;79.75
71344;BME280;59146;43.850;25.948;2023-03-16T14:07:20;100955.78;;;6.70;79.67
71344;BME280;59146;43.850;25.948;2023-03-16T14:09:48;100989.06;;;7.05;80.25